createdAt,value
2022-12-18T00:01:21.468Z,14.55
2022-12-18T00:03:48.721Z,15.90
2022-12-18T00:06:15.862Z,15.90
2022-12-18T00:08:43.668Z,15.70
2022-12-18T00:11:13.364Z,15.43
2022-12-18T00:13:40.314Z,15.85
2022-12-18T00:16:10.877Z,15.82
2022-12-18T00:18:37.604Z,16.35
2022-12-18T00:21:07.239Z,16.55
2022-12-18T00:23:35.699Z,17.20
2022-12-18T00:26:05.460Z,16.55
2022-12-18T00:28:32.190Z,16.35
2022-12-18T00:31:01.568Z,16.50
2022-12-18T00:33:28.443Z,16.70
2022-12-18T00:35:54.766Z,16.50
2022-12-18T00:38:21.178Z,15.82
2022-12-18T00:40:47.528Z,15.18
2022-12-18T00:43:13.888Z,15.45
2022-12-18T00:45:40.238Z,16.35
2022-12-18T00:48:07.133Z,15.70
2022-12-18T00:50:33.568Z,15.25
2022-12-18T00:52:59.951Z,16.48
2022-12-18T00:55:26.339Z,14.57
2022-12-18T00:57:53.491Z,15.77
2022-12-18T01:00:19.917Z,15.73
2022-12-18T01:02:46.433Z,15.27
2022-12-18T01:05:14.646Z,15.32
2022-12-18T01:07:41.023Z,15.65
2022-12-18T01:10:08.775Z,15.65
2022-12-18T01:12:35.302Z,15.25
2022-12-18T01:15:01.892Z,14.73
2022-12-18T01:17:28.413Z,16.02
2022-12-18T01:19:54.738Z,15.18
2022-12-18T01:22:21.139Z,15.88
2022-12-18T01:24:47.483Z,15.57
2022-12-18T01:27:13.947Z,15.50
2022-12-18T01:29:40.252Z,14.75
2022-12-18T01:32:06.687Z,15.65
2022-12-18T01:34:33.125Z,15.65
2022-12-18T01:36:59.430Z,15.02
2022-12-18T01:39:26.217Z,14.73
2022-12-18T01:42:04.783Z,14.93
2022-12-18T01:44:56.322Z,14.25
2022-12-18T01:47:34.803Z,14.23
2022-12-18T01:50:08.208Z,14.10
2022-12-18T01:52:40.814Z,14.02
2022-12-18T01:55:09.118Z,14.95
2022-12-18T01:57:35.819Z,13.50
2022-12-18T02:00:08.116Z,14.07
2022-12-18T02:02:34.601Z,14.82
2022-12-18T02:05:01.521Z,14.45
2022-12-18T02:08:01.622Z,14.70
2022-12-18T02:10:32.586Z,13.30
2022-12-18T02:13:22.914Z,13.18
2022-12-18T02:16:07.243Z,12.52
2022-12-18T02:18:38.744Z,13.55
2022-12-18T02:21:26.369Z,13.88
2022-12-18T02:24:05.795Z,12.95
2022-12-18T02:26:38.977Z,14.05
2022-12-18T02:29:11.330Z,13.85
2022-12-18T02:31:51.610Z,14.23
2022-12-18T02:34:20.504Z,14.10
2022-12-18T02:36:48.918Z,14.52
2022-12-18T02:39:16.846Z,14.02
2022-12-18T02:41:43.394Z,14.27
2022-12-18T02:44:14.076Z,14.38
2022-12-18T02:46:44.369Z,13.43
2022-12-18T02:49:16.788Z,13.68
2022-12-18T02:51:53.959Z,14.32
2022-12-18T02:54:47.886Z,13.88
2022-12-18T02:57:24.620Z,13.77
2022-12-18T03:00:02.611Z,13.73
2022-12-18T03:02:43.312Z,14.02
2022-12-18T03:05:19.778Z,14.40
2022-12-18T03:07:54.231Z,13.43
2022-12-18T03:10:27.790Z,13.27
2022-12-18T03:13:01.450Z,13.63
2022-12-18T03:15:34.801Z,13.85
2022-12-18T03:18:06.153Z,13.68
2022-12-18T03:20:35.883Z,13.00
2022-12-18T03:23:10.045Z,14.25
2022-12-18T03:25:40.662Z,14.45
2022-12-18T03:28:09.618Z,14.55
2022-12-18T03:30:41.899Z,13.70
2022-12-18T03:33:13.727Z,13.60
2022-12-18T03:35:43.616Z,13.18
2022-12-18T03:38:11.406Z,13.10
2022-12-18T03:41:05.827Z,13.70
2022-12-18T03:43:46.770Z,14.82
2022-12-18T03:46:25.280Z,13.90
2022-12-18T03:49:00.727Z,13.25
2022-12-18T03:51:52.634Z,14.63
2022-12-18T03:54:21.058Z,14.07
2022-12-18T03:56:54.879Z,13.90
2022-12-18T03:59:23.257Z,13.57
2022-12-18T04:01:54.212Z,13.60
2022-12-18T04:04:21.146Z,14.77
2022-12-18T04:06:50.555Z,14.25
2022-12-18T04:09:17.195Z,14.25
2022-12-18T04:11:45.261Z,14.20
2022-12-18T04:14:17.403Z,14.68
2022-12-18T04:16:44.568Z,14.63
2022-12-18T04:19:10.985Z,13.65
2022-12-18T04:21:37.415Z,13.65
2022-12-18T04:24:03.919Z,14.90
2022-12-18T04:26:30.268Z,15.05
2022-12-18T04:28:56.659Z,15.60
2022-12-18T04:31:23.202Z,14.63
2022-12-18T04:33:49.674Z,14.55
2022-12-18T04:36:16.039Z,14.30
2022-12-18T04:38:42.457Z,15.15
2022-12-18T04:41:09.110Z,14.68
2022-12-18T04:43:35.493Z,14.50
2022-12-18T04:46:03.927Z,15.05
2022-12-18T04:48:30.366Z,15.13
2022-12-18T04:50:56.751Z,14.48
2022-12-18T04:53:23.158Z,14.60
2022-12-18T04:55:49.586Z,15.90
2022-12-18T04:58:16.275Z,13.93
2022-12-18T05:00:42.910Z,14.13
2022-12-18T05:03:09.230Z,14.45
2022-12-18T05:05:36.392Z,14.27
2022-12-18T05:08:02.826Z,15.45
2022-12-18T05:10:36.189Z,15.32
2022-12-18T05:13:04.202Z,14.93
2022-12-18T05:15:32.001Z,15.27
2022-12-18T05:17:59.623Z,14.20
2022-12-18T05:20:27.399Z,15.32
2022-12-18T05:22:54.891Z,14.82
2022-12-18T05:25:22.698Z,14.68
2022-12-18T05:27:49.422Z,15.02
2022-12-18T05:30:16.668Z,14.27
2022-12-18T05:32:43.281Z,14.70
2022-12-18T05:35:11.709Z,14.38
2022-12-18T05:37:42.710Z,13.82
2022-12-18T05:40:10.803Z,14.88
2022-12-18T05:42:37.417Z,15.40
2022-12-18T05:45:04.303Z,15.05
2022-12-18T05:47:30.683Z,14.07
2022-12-18T05:49:57.068Z,14.15
2022-12-18T05:52:23.635Z,14.65
2022-12-18T05:54:49.957Z,14.07
2022-12-18T05:57:16.336Z,14.30
2022-12-18T05:59:42.805Z,13.52
2022-12-18T06:02:09.441Z,15.10
2022-12-18T06:04:35.907Z,14.43
2022-12-18T06:07:05.070Z,14.98
2022-12-18T06:09:31.715Z,14.82
2022-12-18T06:11:58.093Z,14.55
2022-12-18T06:14:24.420Z,15.32
2022-12-18T06:16:52.821Z,14.85
2022-12-18T06:19:19.197Z,14.40
2022-12-18T06:21:45.558Z,13.90
2022-12-18T06:24:12.026Z,14.85
2022-12-18T06:26:39.802Z,15.20
2022-12-18T06:29:06.423Z,15.15
2022-12-18T06:31:32.930Z,14.77
2022-12-18T06:33:59.347Z,15.35
2022-12-18T06:36:25.765Z,15.63
2022-12-18T06:38:52.140Z,13.98
2022-12-18T06:41:20.959Z,14.82
2022-12-18T06:43:47.417Z,15.10
2022-12-18T06:46:14.058Z,15.43
2022-12-18T06:48:40.489Z,14.98
2022-12-18T06:51:06.926Z,14.90
2022-12-18T06:53:33.745Z,15.10
2022-12-18T06:56:07.823Z,15.57
2022-12-18T06:58:36.162Z,14.63
2022-12-18T07:01:05.060Z,15.02
2022-12-18T07:03:31.712Z,14.63
2022-12-18T07:05:58.130Z,15.23
2022-12-18T07:08:24.701Z,15.25
2022-12-18T07:10:55.927Z,15.75
2022-12-18T07:13:22.837Z,15.65
2022-12-18T07:15:50.263Z,15.65
2022-12-18T07:18:16.601Z,15.45
2022-12-18T07:20:42.905Z,16.13
2022-12-18T07:23:09.235Z,13.93
2022-12-18T07:25:36.744Z,15.40
2022-12-18T07:28:03.385Z,15.18
2022-12-18T07:30:29.883Z,16.73
2022-12-18T07:32:56.316Z,15.98
2022-12-18T07:35:25.251Z,15.68
2022-12-18T07:37:52.022Z,15.73
2022-12-18T07:40:18.408Z,15.13
2022-12-18T07:42:44.791Z,15.50
2022-12-18T07:45:11.750Z,15.82
2022-12-18T07:47:38.204Z,15.20
2022-12-18T07:50:07.692Z,15.75
2022-12-18T07:52:34.015Z,15.82
2022-12-18T07:55:03.818Z,15.93
2022-12-18T08:00:17.180Z,15.48
2022-12-18T08:02:43.712Z,16.42
2022-12-18T08:05:10.108Z,15.98
2022-12-18T08:07:36.452Z,16.15
2022-12-18T08:10:03.016Z,15.98
2022-12-18T08:12:30.457Z,16.60
2022-12-18T08:14:56.848Z,15.10
2022-12-18T08:17:23.230Z,15.52
2022-12-18T08:19:49.634Z,15.40
2022-12-18T08:22:16.003Z,15.95
2022-12-18T08:24:42.347Z,15.93
2022-12-18T08:29:55.032Z,14.82
2022-12-18T08:32:21.495Z,16.92
2022-12-18T08:34:47.880Z,17.13
2022-12-18T08:37:14.216Z,16.58
2022-12-18T08:39:40.584Z,16.55
2022-12-18T08:42:25.607Z,16.08
2022-12-18T08:44:51.940Z,17.17
2022-12-18T08:47:18.314Z,17.02
2022-12-18T08:49:44.610Z,16.40
2022-12-18T08:52:10.960Z,16.88
2022-12-18T08:54:37.412Z,17.42
2022-12-18T08:57:03.847Z,17.38
2022-12-18T08:59:30.180Z,16.27
2022-12-18T09:01:56.752Z,16.85
2022-12-18T09:04:23.594Z,17.52
2022-12-18T09:06:49.962Z,17.05
2022-12-18T09:09:16.320Z,17.13
2022-12-18T09:11:42.681Z,15.85
2022-12-18T09:14:10.756Z,15.98
2022-12-18T09:16:37.266Z,17.58
2022-12-18T09:19:05.325Z,18.15
2022-12-18T09:21:36.737Z,17.77
2022-12-18T09:24:05.012Z,17.13
2022-12-18T09:26:34.674Z,16.27
2022-12-18T09:29:01.028Z,16.25
2022-12-18T09:31:27.379Z,16.92
2022-12-18T09:33:56.028Z,17.33
2022-12-18T09:36:22.347Z,15.70
2022-12-18T09:38:48.775Z,17.90
2022-12-18T09:41:42.397Z,15.77
2022-12-18T09:44:11.768Z,16.98
2022-12-18T09:46:44.483Z,16.33
2022-12-18T09:49:15.584Z,15.65
2022-12-18T09:51:48.487Z,14.77
2022-12-18T09:54:23.414Z,14.93
2022-12-18T09:56:49.969Z,15.10
2022-12-18T09:59:25.007Z,15.63
2022-12-18T10:01:59.661Z,14.90
2022-12-18T10:04:32.469Z,15.30
2022-12-18T10:07:10.577Z,15.15
2022-12-18T10:09:59.509Z,14.43
2022-12-18T10:13:04.140Z,14.68
2022-12-18T10:15:31.175Z,15.60
2022-12-18T10:18:23.441Z,14.35
2022-12-18T10:20:56.790Z,14.75
2022-12-18T10:23:38.085Z,15.05
2022-12-18T10:26:07.262Z,14.88
2022-12-18T10:28:37.114Z,15.40
2022-12-18T10:31:06.518Z,15.52
2022-12-18T10:33:34.321Z,14.88
2022-12-18T10:36:01.348Z,15.32
2022-12-18T10:38:30.491Z,14.45
2022-12-18T10:41:01.823Z,14.30
2022-12-18T10:43:36.604Z,14.52
2022-12-18T10:46:03.005Z,14.43
2022-12-18T10:48:31.404Z,15.07
2022-12-18T10:51:13.855Z,14.77
2022-12-18T10:53:43.521Z,15.07
2022-12-18T10:56:10.354Z,15.60
2022-12-18T10:58:42.196Z,15.52
2022-12-18T11:01:17.502Z,14.00
2022-12-18T11:03:49.329Z,14.90
2022-12-18T11:06:18.282Z,14.10
2022-12-18T11:08:59.201Z,14.57
2022-12-18T11:11:29.655Z,14.20
2022-12-18T11:14:19.334Z,15.40
2022-12-18T11:17:24.368Z,13.13
2022-12-18T11:19:44.854Z,14.32
2022-12-18T11:22:33.773Z,14.52
2022-12-18T11:25:30.847Z,14.35
2022-12-18T11:27:53.176Z,14.00
2022-12-18T11:30:30.177Z,13.77
2022-12-18T11:33:05.077Z,14.68
2022-12-18T11:35:48.774Z,14.70
2022-12-18T11:38:39.044Z,14.15
2022-12-18T11:41:06.461Z,14.63
2022-12-18T11:43:39.653Z,14.23
2022-12-18T11:46:19.642Z,15.15
2022-12-18T11:48:56.987Z,14.57
2022-12-18T11:51:33.107Z,15.10
2022-12-18T11:54:01.185Z,14.18
2022-12-18T11:56:37.436Z,13.13
2022-12-18T11:59:10.267Z,14.57
2022-12-18T12:01:51.442Z,13.77
2022-12-18T12:04:27.076Z,13.75
2022-12-18T12:07:17.868Z,14.25
2022-12-18T12:10:02.572Z,13.43
2022-12-18T12:13:17.436Z,14.02
2022-12-18T12:15:49.785Z,13.57
2022-12-18T12:18:41.205Z,13.43
2022-12-18T12:21:35.547Z,13.60
2022-12-18T12:24:20.557Z,14.68
2022-12-18T12:27:09.358Z,13.60
2022-12-18T12:30:04.700Z,13.60
2022-12-18T12:32:43.214Z,14.18
2022-12-18T12:35:17.854Z,14.43
2022-12-18T12:38:06.225Z,13.85
2022-12-18T12:40:52.438Z,13.90
2022-12-18T12:43:26.828Z,13.77
2022-12-18T12:46:04.521Z,14.23
2022-12-18T12:48:42.002Z,13.65
2022-12-18T12:51:20.518Z,14.10
2022-12-18T12:53:47.375Z,14.43
2022-12-18T12:56:17.671Z,13.90
2022-12-18T12:58:59.237Z,15.18
2022-12-18T13:01:48.394Z,14.50
2022-12-18T13:04:28.056Z,13.23
2022-12-18T13:06:54.431Z,14.75
2022-12-18T13:09:21.047Z,14.50
2022-12-18T13:12:07.301Z,14.43
2022-12-18T13:14:36.968Z,14.15
2022-12-18T13:17:22.143Z,15.02
2022-12-18T13:19:53.397Z,15.00
2022-12-18T13:22:23.795Z,15.00
2022-12-18T13:24:50.603Z,14.68
2022-12-18T13:27:45.051Z,15.40
2022-12-18T13:30:34.359Z,14.75
2022-12-18T13:33:19.493Z,14.27
2022-12-18T13:35:48.869Z,14.18
2022-12-18T13:38:33.282Z,15.57
2022-12-18T13:41:02.764Z,15.00
2022-12-18T13:43:33.735Z,15.15
2022-12-18T13:46:01.565Z,14.73
2022-12-18T13:48:32.468Z,14.75
2022-12-18T13:51:09.686Z,14.35
2022-12-18T13:53:44.404Z,15.43
2022-12-18T13:56:17.093Z,14.85
2022-12-18T13:58:43.700Z,15.90
2022-12-18T14:01:24.657Z,14.90
2022-12-18T14:03:51.146Z,14.85
2022-12-18T14:06:18.168Z,15.23
2022-12-18T14:08:45.466Z,15.73
2022-12-18T14:11:23.173Z,14.98
2022-12-18T14:13:50.400Z,15.45
2022-12-18T14:16:18.035Z,16.25
2022-12-18T14:18:55.516Z,15.18
2022-12-18T14:21:30.406Z,15.70
2022-12-18T14:24:20.016Z,15.02
2022-12-18T14:26:48.124Z,14.85
2022-12-18T14:29:28.332Z,16.15
2022-12-18T14:32:17.846Z,15.40
2022-12-18T14:34:50.894Z,16.52
2022-12-18T14:37:21.708Z,15.57
2022-12-18T14:40:10.560Z,14.98
2022-12-18T14:42:38.221Z,14.93
2022-12-18T14:45:39.208Z,15.07
2022-12-18T14:48:23.229Z,15.65
2022-12-18T14:51:04.567Z,15.85
2022-12-18T14:53:37.208Z,15.07
2022-12-18T14:56:14.333Z,15.40
2022-12-18T14:58:46.361Z,16.13
2022-12-18T15:01:20.561Z,15.70
2022-12-18T15:03:47.118Z,15.88
2022-12-18T15:06:27.923Z,15.68
2022-12-18T15:08:54.630Z,16.67
2022-12-18T15:11:37.314Z,15.18
2022-12-18T15:14:23.578Z,15.65
2022-12-18T15:16:55.074Z,16.05
2022-12-18T15:19:24.641Z,17.35
2022-12-18T15:21:51.307Z,16.45
2022-12-18T15:24:21.035Z,15.43
2022-12-18T15:26:48.764Z,15.02
2022-12-18T15:29:27.037Z,17.00
2022-12-18T15:32:04.377Z,16.10
2022-12-18T15:34:32.209Z,14.95
2022-12-18T15:36:58.698Z,16.05
2022-12-18T15:39:26.250Z,16.40
2022-12-18T15:42:11.821Z,16.42
2022-12-18T15:44:38.837Z,16.73
2022-12-18T15:47:13.908Z,17.00
2022-12-18T15:49:40.543Z,17.20
2022-12-18T15:52:07.331Z,17.33
2022-12-18T15:54:53.497Z,15.85
2022-12-18T15:57:25.818Z,16.77
2022-12-18T15:59:54.149Z,15.63
2022-12-18T16:02:23.952Z,17.45
2022-12-18T16:04:52.958Z,18.40
2022-12-18T16:07:24.618Z,17.50
2022-12-18T16:09:52.049Z,17.48
2022-12-18T16:12:21.734Z,16.80
2022-12-18T16:14:48.329Z,16.63
2022-12-18T16:17:15.596Z,17.15
2022-12-18T16:19:46.244Z,17.15
2022-12-18T16:22:20.850Z,16.27
2022-12-18T16:24:47.625Z,16.40
2022-12-18T16:27:14.375Z,17.13
2022-12-18T16:29:40.741Z,17.17
2022-12-18T16:32:07.209Z,17.95
2022-12-18T16:34:36.053Z,17.83
2022-12-18T16:37:06.372Z,17.88
2022-12-18T16:39:35.280Z,17.13
2022-12-18T16:42:15.283Z,17.00
2022-12-18T16:44:42.658Z,17.30
2022-12-18T16:47:09.440Z,17.08
2022-12-18T16:49:37.526Z,17.15
2022-12-18T16:52:05.267Z,17.75
2022-12-18T16:54:31.710Z,16.77
2022-12-18T16:56:58.139Z,17.15
2022-12-18T16:59:26.877Z,17.23
2022-12-18T17:01:55.608Z,17.83
2022-12-18T17:04:22.133Z,18.02
2022-12-18T17:06:51.794Z,17.02
2022-12-18T17:09:28.546Z,18.73
2022-12-18T17:11:55.203Z,17.23
2022-12-18T17:14:25.006Z,18.00
2022-12-18T17:17:20.841Z,17.92
2022-12-18T17:19:47.994Z,17.23
2022-12-18T17:22:14.383Z,16.92
2022-12-18T17:24:40.719Z,17.52
2022-12-18T17:27:08.765Z,17.15
2022-12-18T17:29:35.275Z,16.80
2022-12-18T17:32:04.033Z,18.23
2022-12-18T17:34:30.685Z,17.55
2022-12-18T17:36:57.599Z,17.35
2022-12-18T17:39:24.028Z,18.50
2022-12-18T17:41:50.615Z,17.25
2022-12-18T17:44:17.775Z,18.20
2022-12-18T17:46:45.980Z,18.27
2022-12-18T17:49:12.770Z,16.85
2022-12-18T17:51:39.366Z,18.02
2022-12-18T17:54:05.941Z,18.55
2022-12-18T17:56:34.114Z,18.52
2022-12-18T17:59:03.462Z,18.30
2022-12-18T18:01:29.935Z,18.95
2022-12-18T18:03:56.477Z,17.77
2022-12-18T18:06:23.909Z,16.52
2022-12-18T18:08:50.712Z,17.63
2022-12-18T18:11:38.443Z,18.33
2022-12-18T18:14:10.928Z,17.35
2022-12-18T18:16:41.807Z,17.55
2022-12-18T18:19:17.555Z,17.40
2022-12-18T18:21:46.091Z,18.73
2022-12-18T18:24:15.401Z,18.40
2022-12-18T18:26:48.750Z,17.60
2022-12-18T18:29:22.306Z,18.10
2022-12-18T18:31:49.029Z,18.90
2022-12-18T18:34:25.053Z,19.83
2022-12-18T18:36:54.428Z,18.65
2022-12-18T18:39:21.116Z,19.25
2022-12-18T18:41:48.195Z,18.65
2022-12-18T18:44:18.538Z,17.80
2022-12-18T18:46:45.318Z,18.17
2022-12-18T18:49:13.606Z,19.05
2022-12-18T18:51:42.105Z,18.40
2022-12-18T18:54:12.141Z,19.02
2022-12-18T18:57:11.816Z,18.98
2022-12-18T18:59:30.358Z,18.85
2022-12-18T19:01:58.915Z,19.13
2022-12-18T19:04:25.589Z,18.40
2022-12-18T19:07:02.021Z,18.55
2022-12-18T19:09:28.763Z,18.55
2022-12-18T19:12:14.310Z,19.55
2022-12-18T19:14:40.731Z,19.15
2022-12-18T19:17:07.275Z,19.60
2022-12-18T19:19:33.976Z,20.20
2022-12-18T19:22:00.756Z,19.38
2022-12-18T19:24:27.388Z,18.98
2022-12-18T19:26:56.873Z,20.33
2022-12-18T19:29:24.789Z,17.80
2022-12-18T19:31:51.319Z,19.70
2022-12-18T19:34:17.781Z,20.25
2022-12-18T19:36:44.434Z,20.00
2022-12-18T19:39:14.988Z,19.67
2022-12-18T19:41:42.391Z,19.73
2022-12-18T19:44:12.060Z,20.73
2022-12-18T19:46:41.719Z,19.27
2022-12-18T19:49:10.080Z,18.90
2022-12-18T19:51:36.522Z,18.92
2022-12-18T19:54:03.176Z,18.98
2022-12-18T19:56:32.417Z,19.67
2022-12-18T19:58:59.546Z,19.73
2022-12-18T20:01:37.183Z,21.10
2022-12-18T20:04:04.275Z,20.30
2022-12-18T20:06:36.613Z,20.08
2022-12-18T20:09:06.420Z,20.08
2022-12-18T20:11:41.578Z,19.88
2022-12-18T20:14:10.074Z,20.40
2022-12-18T20:16:36.688Z,21.08
2022-12-18T20:19:04.076Z,19.92
2022-12-18T20:21:30.733Z,22.52
2022-12-18T20:23:57.137Z,19.98
2022-12-18T20:26:23.961Z,19.02
2022-12-18T20:28:50.529Z,21.33
2022-12-18T20:31:16.962Z,20.75
2022-12-18T20:33:44.559Z,21.35
2022-12-18T20:36:17.605Z,21.45
2022-12-18T20:38:48.124Z,19.35
2022-12-18T20:41:18.641Z,21.75
2022-12-18T20:43:45.725Z,20.20
2022-12-18T20:46:14.358Z,21.27
2022-12-18T20:48:41.278Z,21.73
2022-12-18T20:51:10.796Z,21.60
2022-12-18T20:53:38.555Z,21.08
2022-12-18T20:56:14.770Z,20.73
2022-12-18T20:58:44.681Z,20.80
2022-12-18T21:01:17.113Z,20.65
2022-12-18T21:03:45.889Z,22.50
2022-12-18T21:06:13.761Z,20.17
2022-12-18T21:08:40.102Z,21.02
2022-12-18T21:11:40.504Z,22.05
2022-12-18T21:14:11.904Z,21.08
2022-12-18T21:16:39.858Z,21.92
2022-12-18T21:19:06.482Z,21.08
2022-12-18T21:21:38.522Z,21.88
2022-12-18T21:24:06.469Z,21.00
2022-12-18T21:26:33.533Z,22.85
2022-12-18T21:29:03.197Z,21.45
2022-12-18T21:31:34.004Z,22.65
2022-12-18T21:34:02.495Z,22.08
2022-12-18T21:36:30.234Z,22.70
2022-12-18T21:38:57.539Z,23.23
2022-12-18T21:41:46.598Z,24.60
2022-12-18T21:44:17.531Z,23.70
2022-12-18T21:46:50.169Z,23.83
2022-12-18T21:49:21.839Z,24.48
2022-12-18T21:51:57.050Z,24.48
2022-12-18T21:54:24.909Z,23.23
2022-12-18T21:57:02.848Z,25.70
2022-12-18T21:59:35.709Z,24.42
2022-12-18T22:02:07.812Z,24.63
2022-12-18T22:04:34.447Z,25.80
2022-12-18T22:07:00.908Z,24.88
2022-12-18T22:09:27.739Z,24.63
2022-12-18T22:11:54.161Z,25.98
2022-12-18T22:14:21.517Z,25.20
2022-12-18T22:16:48.142Z,26.33
2022-12-18T22:19:16.086Z,25.05
2022-12-18T22:21:45.802Z,25.85
2022-12-18T22:24:14.319Z,27.08
2022-12-18T22:26:41.275Z,26.77
2022-12-18T22:29:29.264Z,27.65
2022-12-18T22:31:57.359Z,26.45
2022-12-18T22:34:23.689Z,26.75
2022-12-18T22:36:50.733Z,28.25
2022-12-18T22:39:25.442Z,25.75
2022-12-18T22:41:52.428Z,28.00
2022-12-18T22:44:19.332Z,28.48
2022-12-18T22:46:49.395Z,30.35
2022-12-18T22:49:25.396Z,27.75
2022-12-18T22:51:53.103Z,27.85
2022-12-18T22:54:20.807Z,27.83
2022-12-18T22:56:47.175Z,28.63
2022-12-18T22:59:19.622Z,27.40
2022-12-18T23:01:47.595Z,27.65
2022-12-18T23:04:15.406Z,29.30
2022-12-18T23:06:42.883Z,28.40
2022-12-18T23:09:18.075Z,27.38
2022-12-18T23:11:44.958Z,29.30
2022-12-18T23:14:11.989Z,27.83
2022-12-18T23:16:38.836Z,28.95
2022-12-18T23:19:05.754Z,29.67
2022-12-18T23:21:32.142Z,30.55
2022-12-18T23:23:58.843Z,31.08
2022-12-18T23:26:26.104Z,29.70
2022-12-18T23:28:53.481Z,29.98
2022-12-18T23:31:23.695Z,32.80
2022-12-18T23:33:51.820Z,34.47
2022-12-18T23:36:19.412Z,30.42
2022-12-18T23:38:51.010Z,33.40
2022-12-18T23:41:19.076Z,33.08
2022-12-18T23:43:45.746Z,32.05
2022-12-18T23:46:19.885Z,30.42
2022-12-18T23:48:46.872Z,31.60
2022-12-18T23:51:14.840Z,31.23
2022-12-18T23:53:42.515Z,30.02
2022-12-18T23:56:10.518Z,29.48
2022-12-18T23:58:38.416Z,29.30
